sensor_id;sensor_type;location;lat;lon;timestamp;P1;durP1;ratioP1;P2;durP2;ratioP2
16352;SDS011;8286;51.274;9.542;2023-04-15T00:02:20;5.40;;;3.80;;
16352;SDS011;8286;51.274;9.542;2023-04-15T00:04:47;6.53;;;3.40;;
16352;SDS011;8286;51.274;9.542;2023-04-15T00:07:14;4.80;;;3.57;;
16352;SDS011;8286;51.274;9.542;2023-04-15T00:09:43;4.40;;;3.70;;
16352;SDS011;8286;51.274;9.542;2023-04-15T00:12:10;6.43;;;3.93;;
16352;SDS011;8286;51.274;9.542;2023-04-15T00:14:36;4.30;;;3.80;;
16352;SDS011;8286;51.274;9.542;2023-04-15T00:17:03;5.13;;;3.70;;
16352;SDS011;8286;51.274;9.542;2023-04-15T00:19:30;4.60;;;3.80;;
16352;SDS011;8286;51.274;9.542;2023-04-15T00:21:57;4.73;;;3.80;;
16352;SDS011;8286;51.274;9.542;2023-04-15T00:24:23;4.37;;;3.97;;
16352;SDS011;8286;51.274;9.542;2023-04-15T00:26:52;6.90;;;4.07;;
16352;SDS011;8286;51.274;9.542;2023-04-15T00:29:18;4.13;;;3.80;;
16352;SDS011;8286;51.274;9.542;2023-04-15T00:31:45;7.10;;;4.20;;
16352;SDS011;8286;51.274;9.542;2023-04-15T00:34:12;5.43;;;3.70;;
16352;SDS011;8286;51.274;9.542;2023-04-15T00:36:39;7.30;;;4.50;;
16352;SDS011;8286;51.274;9.542;2023-04-15T00:39:05;7.07;;;4.33;;
16352;SDS011;8286;51.274;9.542;2023-04-15T00:41:32;7.93;;;3.97;;
16352;SDS011;8286;51.274;9.542;2023-04-15T00:44:00;4.90;;;4.03;;
16352;SDS011;8286;51.274;9.542;2023-04-15T00:46:27;5.63;;;4.10;;
16352;SDS011;8286;51.274;9.542;2023-04-15T00:48:54;3.83;;;3.53;;
16352;SDS011;8286;51.274;9.542;2023-04-15T00:51:21;5.50;;;3.73;;
16352;SDS011;8286;51.274;9.542;2023-04-15T00:53:48;4.97;;;3.87;;
16352;SDS011;8286;51.274;9.542;2023-04-15T00:56:15;4.83;;;3.53;;
16352;SDS011;8286;51.274;9.542;2023-04-15T00:58:42;6.47;;;4.10;;
16352;SDS011;8286;51.274;9.542;2023-04-15T01:01:10;5.77;;;3.50;;
16352;SDS011;8286;51.274;9.542;2023-04-15T01:03:37;5.50;;;4.17;;
16352;SDS011;8286;51.274;9.542;2023-04-15T01:06:03;5.30;;;3.60;;
16352;SDS011;8286;51.274;9.542;2023-04-15T01:08:30;5.53;;;3.27;;
16352;SDS011;8286;51.274;9.542;2023-04-15T01:10:57;3.57;;;3.27;;
16352;SDS011;8286;51.274;9.542;2023-04-15T01:13:24;4.77;;;4.00;;
16352;SDS011;8286;51.274;9.542;2023-04-15T01:15:51;5.47;;;3.67;;
16352;SDS011;8286;51.274;9.542;2023-04-15T01:18:19;4.20;;;3.63;;
16352;SDS011;8286;51.274;9.542;2023-04-15T01:20:46;4.87;;;3.43;;
16352;SDS011;8286;51.274;9.542;2023-04-15T01:23:12;6.43;;;3.73;;
16352;SDS011;8286;51.274;9.542;2023-04-15T01:25:40;6.90;;;3.53;;
16352;SDS011;8286;51.274;9.542;2023-04-15T01:28:07;3.87;;;3.20;;
16352;SDS011;8286;51.274;9.542;2023-04-15T01:30:35;4.77;;;3.57;;
16352;SDS011;8286;51.274;9.542;2023-04-15T01:33:02;4.67;;;3.63;;
16352;SDS011;8286;51.274;9.542;2023-04-15T01:35:28;5.67;;;4.07;;
16352;SDS011;8286;51.274;9.542;2023-04-15T01:37:55;4.33;;;3.10;;
16352;SDS011;8286;51.274;9.542;2023-04-15T01:40:25;5.03;;;3.80;;
16352;SDS011;8286;51.274;9.542;2023-04-15T01:42:53;4.10;;;3.73;;
16352;SDS011;8286;51.274;9.542;2023-04-15T01:45:20;4.53;;;3.77;;
16352;SDS011;8286;51.274;9.542;2023-04-15T01:47:46;4.07;;;3.67;;
16352;SDS011;8286;51.274;9.542;2023-04-15T01:50:13;3.90;;;3.17;;
16352;SDS011;8286;51.274;9.542;2023-04-15T01:52:40;8.67;;;3.47;;
16352;SDS011;8286;51.274;9.542;2023-04-15T01:55:07;5.03;;;3.57;;
16352;SDS011;8286;51.274;9.542;2023-04-15T01:57:34;4.87;;;3.70;;
16352;SDS011;8286;51.274;9.542;2023-04-15T02:00:03;5.13;;;3.67;;
16352;SDS011;8286;51.274;9.542;2023-04-15T02:02:31;4.77;;;3.73;;
16352;SDS011;8286;51.274;9.542;2023-04-15T02:04:58;4.43;;;3.43;;
16352;SDS011;8286;51.274;9.542;2023-04-15T02:07:24;4.77;;;3.80;;
16352;SDS011;8286;51.274;9.542;2023-04-15T02:09:53;4.33;;;3.37;;
16352;SDS011;8286;51.274;9.542;2023-04-15T02:12:19;4.40;;;3.63;;
16352;SDS011;8286;51.274;9.542;2023-04-15T02:14:46;3.70;;;3.30;;
16352;SDS011;8286;51.274;9.542;2023-04-15T02:17:14;5.47;;;3.77;;
16352;SDS011;8286;51.274;9.542;2023-04-15T02:19:40;4.20;;;3.63;;
16352;SDS011;8286;51.274;9.542;2023-04-15T02:22:07;5.43;;;3.60;;
16352;SDS011;8286;51.274;9.542;2023-04-15T02:24:35;4.30;;;3.60;;
16352;SDS011;8286;51.274;9.542;2023-04-15T02:27:01;4.73;;;3.47;;
16352;SDS011;8286;51.274;9.542;2023-04-15T02:29:30;5.00;;;3.80;;
16352;SDS011;8286;51.274;9.542;2023-04-15T02:31:56;4.63;;;3.60;;
16352;SDS011;8286;51.274;9.542;2023-04-15T02:34:24;4.93;;;3.70;;
16352;SDS011;8286;51.274;9.542;2023-04-15T02:36:51;6.80;;;4.37;;
16352;SDS011;8286;51.274;9.542;2023-04-15T02:39:21;5.00;;;4.10;;
16352;SDS011;8286;51.274;9.542;2023-04-15T02:41:48;6.10;;;4.20;;
16352;SDS011;8286;51.274;9.542;2023-04-15T02:44:16;4.73;;;4.03;;
16352;SDS011;8286;51.274;9.542;2023-04-15T02:46:44;6.27;;;4.07;;
16352;SDS011;8286;51.274;9.542;2023-04-15T02:49:12;5.13;;;4.23;;
16352;SDS011;8286;51.274;9.542;2023-04-15T02:51:41;8.13;;;4.60;;
16352;SDS011;8286;51.274;9.542;2023-04-15T02:54:07;8.00;;;5.07;;
16352;SDS011;8286;51.274;9.542;2023-04-15T02:56:34;9.80;;;6.17;;
16352;SDS011;8286;51.274;9.542;2023-04-15T02:59:00;6.83;;;5.03;;
16352;SDS011;8286;51.274;9.542;2023-04-15T03:01:27;8.83;;;5.50;;
16352;SDS011;8286;51.274;9.542;2023-04-15T03:03:53;7.17;;;4.90;;
16352;SDS011;8286;51.274;9.542;2023-04-15T03:06:20;11.63;;;4.97;;
16352;SDS011;8286;51.274;9.542;2023-04-15T03:08:48;8.33;;;5.30;;
16352;SDS011;8286;51.274;9.542;2023-04-15T03:11:14;6.37;;;4.60;;
16352;SDS011;8286;51.274;9.542;2023-04-15T03:13:41;6.53;;;4.27;;
16352;SDS011;8286;51.274;9.542;2023-04-15T03:16:08;6.53;;;4.60;;
16352;SDS011;8286;51.274;9.542;2023-04-15T03:18:35;5.70;;;4.77;;
16352;SDS011;8286;51.274;9.542;2023-04-15T03:21:02;5.53;;;4.63;;
16352;SDS011;8286;51.274;9.542;2023-04-15T03:23:29;6.30;;;4.47;;
16352;SDS011;8286;51.274;9.542;2023-04-15T03:26:00;4.90;;;4.30;;
16352;SDS011;8286;51.274;9.542;2023-04-15T03:28:28;5.97;;;4.60;;
16352;SDS011;8286;51.274;9.542;2023-04-15T03:30:55;5.33;;;3.83;;
16352;SDS011;8286;51.274;9.542;2023-04-15T03:33:22;7.23;;;4.90;;
16352;SDS011;8286;51.274;9.542;2023-04-15T03:35:49;8.23;;;5.40;;
16352;SDS011;8286;51.274;9.542;2023-04-15T03:38:15;9.13;;;5.23;;
16352;SDS011;8286;51.274;9.542;2023-04-15T03:40:42;7.93;;;5.43;;
16352;SDS011;8286;51.274;9.542;2023-04-15T03:43:10;7.30;;;5.67;;
16352;SDS011;8286;51.274;9.542;2023-04-15T03:45:36;10.60;;;5.97;;
16352;SDS011;8286;51.274;9.542;2023-04-15T03:48:03;10.33;;;6.20;;
16352;SDS011;8286;51.274;9.542;2023-04-15T03:50:30;10.47;;;7.03;;
16352;SDS011;8286;51.274;9.542;2023-04-15T03:52:57;12.87;;;6.77;;
16352;SDS011;8286;51.274;9.542;2023-04-15T03:55:23;8.43;;;6.40;;
16352;SDS011;8286;51.274;9.542;2023-04-15T03:57:50;8.60;;;6.63;;
16352;SDS011;8286;51.274;9.542;2023-04-15T04:00:18;11.00;;;6.93;;
16352;SDS011;8286;51.274;9.542;2023-04-15T04:02:44;10.37;;;7.43;;
16352;SDS011;8286;51.274;9.542;2023-04-15T04:05:11;12.50;;;7.20;;
16352;SDS011;8286;51.274;9.542;2023-04-15T04:07:37;12.33;;;7.20;;
16352;SDS011;8286;51.274;9.542;2023-04-15T04:10:04;12.53;;;7.30;;
16352;SDS011;8286;51.274;9.542;2023-04-15T04:12:32;12.20;;;7.83;;
16352;SDS011;8286;51.274;9.542;2023-04-15T04:14:58;12.17;;;7.60;;
16352;SDS011;8286;51.274;9.542;2023-04-15T04:17:27;10.83;;;7.20;;
16352;SDS011;8286;51.274;9.542;2023-04-15T04:19:53;11.97;;;7.20;;
16352;SDS011;8286;51.274;9.542;2023-04-15T04:22:21;12.37;;;7.20;;
16352;SDS011;8286;51.274;9.542;2023-04-15T04:24:47;12.10;;;7.03;;
16352;SDS011;8286;51.274;9.542;2023-04-15T04:27:14;13.90;;;6.83;;
16352;SDS011;8286;51.274;9.542;2023-04-15T04:29:41;9.07;;;7.17;;
16352;SDS011;8286;51.274;9.542;2023-04-15T04:32:07;10.60;;;6.67;;
16352;SDS011;8286;51.274;9.542;2023-04-15T04:34:35;11.10;;;7.07;;
16352;SDS011;8286;51.274;9.542;2023-04-15T04:37:02;10.47;;;6.97;;
16352;SDS011;8286;51.274;9.542;2023-04-15T04:39:29;12.93;;;7.43;;
16352;SDS011;8286;51.274;9.542;2023-04-15T04:41:55;10.77;;;7.80;;
16352;SDS011;8286;51.274;9.542;2023-04-15T04:44:22;13.43;;;7.30;;
16352;SDS011;8286;51.274;9.542;2023-04-15T04:46:48;10.30;;;7.50;;
16352;SDS011;8286;51.274;9.542;2023-04-15T04:49:15;10.33;;;7.00;;
16352;SDS011;8286;51.274;9.542;2023-04-15T04:51:43;11.83;;;6.73;;
16352;SDS011;8286;51.274;9.542;2023-04-15T04:54:11;11.40;;;7.70;;
16352;SDS011;8286;51.274;9.542;2023-04-15T04:56:37;11.17;;;6.93;;
16352;SDS011;8286;51.274;9.542;2023-04-15T04:59:04;10.60;;;7.23;;
16352;SDS011;8286;51.274;9.542;2023-04-15T05:01:31;12.17;;;7.90;;
16352;SDS011;8286;51.274;9.542;2023-04-15T05:03:57;11.60;;;7.87;;
16352;SDS011;8286;51.274;9.542;2023-04-15T05:06:24;10.90;;;7.10;;
16352;SDS011;8286;51.274;9.542;2023-04-15T05:08:53;11.93;;;8.43;;
16352;SDS011;8286;51.274;9.542;2023-04-15T05:11:20;12.63;;;7.83;;
16352;SDS011;8286;51.274;9.542;2023-04-15T05:13:47;12.67;;;7.97;;
16352;SDS011;8286;51.274;9.542;2023-04-15T05:16:13;10.80;;;7.80;;
16352;SDS011;8286;51.274;9.542;2023-04-15T05:18:40;11.70;;;7.83;;
16352;SDS011;8286;51.274;9.542;2023-04-15T05:21:07;12.10;;;8.10;;
16352;SDS011;8286;51.274;9.542;2023-04-15T05:23:33;11.67;;;7.90;;
16352;SDS011;8286;51.274;9.542;2023-04-15T05:26:01;14.53;;;9.07;;
16352;SDS011;8286;51.274;9.542;2023-04-15T05:28:28;14.90;;;9.13;;
16352;SDS011;8286;51.274;9.542;2023-04-15T05:30:55;13.97;;;8.37;;
16352;SDS011;8286;51.274;9.542;2023-04-15T05:33:21;13.00;;;8.60;;
16352;SDS011;8286;51.274;9.542;2023-04-15T05:35:48;16.80;;;9.50;;
16352;SDS011;8286;51.274;9.542;2023-04-15T05:38:15;13.57;;;8.90;;
16352;SDS011;8286;51.274;9.542;2023-04-15T05:40:41;14.23;;;8.63;;
16352;SDS011;8286;51.274;9.542;2023-04-15T05:43:09;14.37;;;9.60;;
16352;SDS011;8286;51.274;9.542;2023-04-15T05:45:36;14.53;;;9.03;;
16352;SDS011;8286;51.274;9.542;2023-04-15T05:48:02;14.30;;;8.53;;
16352;SDS011;8286;51.274;9.542;2023-04-15T05:50:29;14.10;;;8.53;;
16352;SDS011;8286;51.274;9.542;2023-04-15T05:52:56;15.57;;;8.53;;
16352;SDS011;8286;51.274;9.542;2023-04-15T05:55:22;15.50;;;8.47;;
16352;SDS011;8286;51.274;9.542;2023-04-15T05:57:49;16.37;;;10.17;;
16352;SDS011;8286;51.274;9.542;2023-04-15T06:00:17;17.33;;;9.50;;
16352;SDS011;8286;51.274;9.542;2023-04-15T06:02:45;14.87;;;8.70;;
16352;SDS011;8286;51.274;9.542;2023-04-15T06:05:12;14.70;;;9.43;;
16352;SDS011;8286;51.274;9.542;2023-04-15T06:07:39;17.93;;;9.30;;
16352;SDS011;8286;51.274;9.542;2023-04-15T06:10:06;17.73;;;9.93;;
16352;SDS011;8286;51.274;9.542;2023-04-15T06:12:33;16.93;;;9.43;;
16352;SDS011;8286;51.274;9.542;2023-04-15T06:15:00;15.40;;;9.33;;
16352;SDS011;8286;51.274;9.542;2023-04-15T06:17:28;15.70;;;9.57;;
16352;SDS011;8286;51.274;9.542;2023-04-15T06:19:54;16.03;;;9.63;;
16352;SDS011;8286;51.274;9.542;2023-04-15T06:22:21;17.00;;;10.07;;
16352;SDS011;8286;51.274;9.542;2023-04-15T06:24:48;18.53;;;10.43;;
16352;SDS011;8286;51.274;9.542;2023-04-15T06:27:15;16.83;;;10.47;;
16352;SDS011;8286;51.274;9.542;2023-04-15T06:29:42;17.27;;;9.93;;
16352;SDS011;8286;51.274;9.542;2023-04-15T06:32:08;17.30;;;10.13;;
16352;SDS011;8286;51.274;9.542;2023-04-15T06:34:37;18.83;;;10.20;;
16352;SDS011;8286;51.274;9.542;2023-04-15T06:37:03;19.27;;;11.03;;
16352;SDS011;8286;51.274;9.542;2023-04-15T06:39:30;16.87;;;10.13;;
16352;SDS011;8286;51.274;9.542;2023-04-15T06:41:57;16.70;;;9.77;;
16352;SDS011;8286;51.274;9.542;2023-04-15T06:44:23;15.70;;;9.83;;
16352;SDS011;8286;51.274;9.542;2023-04-15T06:46:50;17.50;;;9.90;;
16352;SDS011;8286;51.274;9.542;2023-04-15T06:49:17;18.10;;;9.87;;
16352;SDS011;8286;51.274;9.542;2023-04-15T06:51:45;18.63;;;9.17;;
16352;SDS011;8286;51.274;9.542;2023-04-15T06:54:11;16.10;;;9.27;;
16352;SDS011;8286;51.274;9.542;2023-04-15T06:56:38;14.83;;;9.57;;
16352;SDS011;8286;51.274;9.542;2023-04-15T06:59:06;17.03;;;10.00;;
16352;SDS011;8286;51.274;9.542;2023-04-15T07:01:32;17.67;;;10.23;;
16352;SDS011;8286;51.274;9.542;2023-04-15T07:03:59;19.60;;;9.93;;
16352;SDS011;8286;51.274;9.542;2023-04-15T07:06:25;16.83;;;9.50;;
16352;SDS011;8286;51.274;9.542;2023-04-15T07:08:53;18.13;;;9.70;;
16352;SDS011;8286;51.274;9.542;2023-04-15T07:11:21;17.87;;;10.03;;
16352;SDS011;8286;51.274;9.542;2023-04-15T07:13:48;17.80;;;9.90;;
16352;SDS011;8286;51.274;9.542;2023-04-15T07:16:14;18.47;;;10.30;;
16352;SDS011;8286;51.274;9.542;2023-04-15T07:18:41;17.97;;;9.70;;
16352;SDS011;8286;51.274;9.542;2023-04-15T07:21:07;17.97;;;9.63;;
16352;SDS011;8286;51.274;9.542;2023-04-15T07:23:34;17.60;;;10.30;;
16352;SDS011;8286;51.274;9.542;2023-04-15T07:26:02;17.40;;;10.60;;
16352;SDS011;8286;51.274;9.542;2023-04-15T07:28:29;19.17;;;10.60;;
16352;SDS011;8286;51.274;9.542;2023-04-15T07:30:56;16.13;;;10.03;;
16352;SDS011;8286;51.274;9.542;2023-04-15T07:33:22;17.10;;;10.00;;
16352;SDS011;8286;51.274;9.542;2023-04-15T07:35:49;16.77;;;10.27;;
16352;SDS011;8286;51.274;9.542;2023-04-15T07:38:16;20.23;;;10.90;;
16352;SDS011;8286;51.274;9.542;2023-04-15T07:40:42;17.60;;;10.50;;
16352;SDS011;8286;51.274;9.542;2023-04-15T07:43:10;19.27;;;10.73;;
16352;SDS011;8286;51.274;9.542;2023-04-15T07:45:37;17.73;;;10.17;;
16352;SDS011;8286;51.274;9.542;2023-04-15T07:48:04;19.30;;;10.47;;
16352;SDS011;8286;51.274;9.542;2023-04-15T07:50:32;19.27;;;10.80;;
16352;SDS011;8286;51.274;9.542;2023-04-15T07:52:58;18.57;;;10.70;;
16352;SDS011;8286;51.274;9.542;2023-04-15T07:55:25;20.33;;;11.13;;
16352;SDS011;8286;51.274;9.542;2023-04-15T07:57:52;19.40;;;11.13;;
16352;SDS011;8286;51.274;9.542;2023-04-15T08:00:20;18.60;;;10.80;;
16352;SDS011;8286;51.274;9.542;2023-04-15T08:02:47;24.37;;;11.63;;
16352;SDS011;8286;51.274;9.542;2023-04-15T08:05:16;17.30;;;10.20;;
16352;SDS011;8286;51.274;9.542;2023-04-15T08:07:43;18.63;;;10.60;;
16352;SDS011;8286;51.274;9.542;2023-04-15T08:10:10;17.60;;;11.30;;
16352;SDS011;8286;51.274;9.542;2023-04-15T08:12:37;19.57;;;11.07;;
16352;SDS011;8286;51.274;9.542;2023-04-15T08:15:04;17.87;;;10.40;;
16352;SDS011;8286;51.274;9.542;2023-04-15T08:17:33;18.60;;;9.97;;
16352;SDS011;8286;51.274;9.542;2023-04-15T08:20:00;19.73;;;11.23;;
16352;SDS011;8286;51.274;9.542;2023-04-15T08:22:27;24.67;;;11.23;;
16352;SDS011;8286;51.274;9.542;2023-04-15T08:24:54;20.30;;;11.33;;
16352;SDS011;8286;51.274;9.542;2023-04-15T08:27:20;16.70;;;10.37;;
16352;SDS011;8286;51.274;9.542;2023-04-15T08:29:47;20.00;;;9.73;;
16352;SDS011;8286;51.274;9.542;2023-04-15T08:32:13;17.17;;;9.53;;
16352;SDS011;8286;51.274;9.542;2023-04-15T08:34:42;17.47;;;9.80;;
16352;SDS011;8286;51.274;9.542;2023-04-15T08:37:08;16.47;;;9.47;;
16352;SDS011;8286;51.274;9.542;2023-04-15T08:39:35;17.67;;;10.30;;
16352;SDS011;8286;51.274;9.542;2023-04-15T08:42:02;19.83;;;10.30;;
16352;SDS011;8286;51.274;9.542;2023-04-15T08:44:32;15.13;;;9.23;;
16352;SDS011;8286;51.274;9.542;2023-04-15T08:47:01;15.13;;;8.53;;
16352;SDS011;8286;51.274;9.542;2023-04-15T08:49:29;15.27;;;9.13;;
16352;SDS011;8286;51.274;9.542;2023-04-15T08:51:59;16.00;;;9.30;;
16352;SDS011;8286;51.274;9.542;2023-04-15T08:54:26;14.63;;;9.10;;
16352;SDS011;8286;51.274;9.542;2023-04-15T08:56:53;20.00;;;9.07;;
16352;SDS011;8286;51.274;9.542;2023-04-15T08:59:20;15.83;;;8.53;;
16352;SDS011;8286;51.274;9.542;2023-04-15T09:01:47;19.13;;;9.00;;
16352;SDS011;8286;51.274;9.542;2023-04-15T09:04:13;14.40;;;8.67;;
16352;SDS011;8286;51.274;9.542;2023-04-15T09:06:40;16.00;;;8.97;;
16352;SDS011;8286;51.274;9.542;2023-04-15T09:09:08;13.57;;;7.67;;
16352;SDS011;8286;51.274;9.542;2023-04-15T09:11:35;12.63;;;7.70;;
16352;SDS011;8286;51.274;9.542;2023-04-15T09:14:01;14.40;;;7.73;;
16352;SDS011;8286;51.274;9.542;2023-04-15T09:16:28;12.53;;;7.53;;
16352;SDS011;8286;51.274;9.542;2023-04-15T09:18:55;13.27;;;7.43;;
16352;SDS011;8286;51.274;9.542;2023-04-15T09:21:21;11.83;;;7.13;;
16352;SDS011;8286;51.274;9.542;2023-04-15T09:23:55;12.30;;;7.37;;
16352;SDS011;8286;51.274;9.542;2023-04-15T09:26:32;13.73;;;7.03;;
16352;SDS011;8286;51.274;9.542;2023-04-15T09:29:05;11.80;;;6.53;;
16352;SDS011;8286;51.274;9.542;2023-04-15T09:31:33;11.53;;;7.37;;
16352;SDS011;8286;51.274;9.542;2023-04-15T09:34:01;13.43;;;6.93;;
16352;SDS011;8286;51.274;9.542;2023-04-15T09:36:27;11.87;;;6.80;;
16352;SDS011;8286;51.274;9.542;2023-04-15T09:38:55;13.10;;;6.80;;
16352;SDS011;8286;51.274;9.542;2023-04-15T09:41:22;11.10;;;5.90;;
16352;SDS011;8286;51.274;9.542;2023-04-15T09:43:50;8.40;;;5.57;;
16352;SDS011;8286;51.274;9.542;2023-04-15T09:46:17;9.80;;;5.83;;
16352;SDS011;8286;51.274;9.542;2023-04-15T09:48:44;7.97;;;5.70;;
16352;SDS011;8286;51.274;9.542;2023-04-15T09:51:11;12.00;;;5.20;;
16352;SDS011;8286;51.274;9.542;2023-04-15T09:53:38;8.67;;;5.43;;
16352;SDS011;8286;51.274;9.542;2023-04-15T09:56:05;9.80;;;5.53;;
16352;SDS011;8286;51.274;9.542;2023-04-15T09:58:33;9.57;;;5.60;;
16352;SDS011;8286;51.274;9.542;2023-04-15T10:01:04;7.67;;;5.57;;
16352;SDS011;8286;51.274;9.542;2023-04-15T10:03:33;8.97;;;5.00;;
16352;SDS011;8286;51.274;9.542;2023-04-15T10:06:00;9.00;;;5.33;;
16352;SDS011;8286;51.274;9.542;2023-04-15T10:08:29;8.47;;;4.87;;
16352;SDS011;8286;51.274;9.542;2023-04-15T10:11:00;6.30;;;4.40;;
16352;SDS011;8286;51.274;9.542;2023-04-15T10:13:28;7.50;;;5.23;;
16352;SDS011;8286;51.274;9.542;2023-04-15T10:15:59;7.43;;;4.40;;
16352;SDS011;8286;51.274;9.542;2023-04-15T10:18:28;5.83;;;3.93;;
16352;SDS011;8286;51.274;9.542;2023-04-15T10:20:57;5.70;;;3.83;;
16352;SDS011;8286;51.274;9.542;2023-04-15T10:23:26;6.53;;;4.33;;
16352;SDS011;8286;51.274;9.542;2023-04-15T10:25:53;7.87;;;4.97;;
16352;SDS011;8286;51.274;9.542;2023-04-15T10:28:20;6.27;;;4.37;;
16352;SDS011;8286;51.274;9.542;2023-04-15T10:30:47;5.70;;;3.70;;
16352;SDS011;8286;51.274;9.542;2023-04-15T10:33:14;5.83;;;4.07;;
16352;SDS011;8286;51.274;9.542;2023-04-15T10:35:46;6.33;;;4.23;;
16352;SDS011;8286;51.274;9.542;2023-04-15T10:38:33;4.63;;;3.50;;
16352;SDS011;8286;51.274;9.542;2023-04-15T10:43:52;7.07;;;4.07;;
16352;SDS011;8286;51.274;9.542;2023-04-15T10:46:20;6.13;;;3.57;;
16352;SDS011;8286;51.274;9.542;2023-04-15T10:48:49;4.63;;;3.37;;
16352;SDS011;8286;51.274;9.542;2023-04-15T10:51:26;6.50;;;3.73;;
16352;SDS011;8286;51.274;9.542;2023-04-15T10:53:58;4.67;;;3.40;;
16352;SDS011;8286;51.274;9.542;2023-04-15T10:56:25;3.70;;;2.87;;
16352;SDS011;8286;51.274;9.542;2023-04-15T10:58:53;4.07;;;3.13;;
16352;SDS011;8286;51.274;9.542;2023-04-15T11:01:20;3.03;;;2.73;;
16352;SDS011;8286;51.274;9.542;2023-04-15T11:03:47;8.73;;;2.90;;
16352;SDS011;8286;51.274;9.542;2023-04-15T11:06:15;4.83;;;3.93;;
16352;SDS011;8286;51.274;9.542;2023-04-15T11:08:55;3.40;;;3.10;;
16352;SDS011;8286;51.274;9.542;2023-04-15T11:11:37;3.57;;;2.77;;
16352;SDS011;8286;51.274;9.542;2023-04-15T11:14:31;4.13;;;3.17;;
16352;SDS011;8286;51.274;9.542;2023-04-15T11:16:58;4.57;;;3.73;;
16352;SDS011;8286;51.274;9.542;2023-04-15T11:19:25;3.67;;;3.33;;
16352;SDS011;8286;51.274;9.542;2023-04-15T11:21:52;4.03;;;3.43;;
16352;SDS011;8286;51.274;9.542;2023-04-15T11:24:24;3.33;;;3.00;;
16352;SDS011;8286;51.274;9.542;2023-04-15T11:26:55;5.63;;;3.57;;
16352;SDS011;8286;51.274;9.542;2023-04-15T11:29:26;4.77;;;3.13;;
16352;SDS011;8286;51.274;9.542;2023-04-15T11:32:00;4.23;;;3.23;;
16352;SDS011;8286;51.274;9.542;2023-04-15T11:34:29;4.53;;;3.23;;
16352;SDS011;8286;51.274;9.542;2023-04-15T11:36:57;4.87;;;3.23;;
16352;SDS011;8286;51.274;9.542;2023-04-15T11:39:25;3.50;;;3.07;;
16352;SDS011;8286;51.274;9.542;2023-04-15T11:41:54;4.83;;;3.33;;
16352;SDS011;8286;51.274;9.542;2023-04-15T11:44:21;3.90;;;3.20;;
16352;SDS011;8286;51.274;9.542;2023-04-15T11:46:47;3.13;;;2.83;;
16352;SDS011;8286;51.274;9.542;2023-04-15T11:49:24;3.97;;;3.00;;
16352;SDS011;8286;51.274;9.542;2023-04-15T11:51:51;3.37;;;3.00;;
16352;SDS011;8286;51.274;9.542;2023-04-15T11:54:18;3.87;;;3.10;;
16352;SDS011;8286;51.274;9.542;2023-04-15T11:56:50;3.33;;;2.80;;
16352;SDS011;8286;51.274;9.542;2023-04-15T11:59:17;4.57;;;2.90;;
16352;SDS011;8286;51.274;9.542;2023-04-15T12:01:44;3.53;;;2.90;;
16352;SDS011;8286;51.274;9.542;2023-04-15T12:04:12;3.33;;;2.93;;
16352;SDS011;8286;51.274;9.542;2023-04-15T12:06:39;3.03;;;2.60;;
16352;SDS011;8286;51.274;9.542;2023-04-15T12:09:09;3.00;;;2.63;;
16352;SDS011;8286;51.274;9.542;2023-04-15T12:11:38;3.97;;;2.93;;
16352;SDS011;8286;51.274;9.542;2023-04-15T12:14:08;3.77;;;2.70;;
16352;SDS011;8286;51.274;9.542;2023-04-15T12:16:37;3.37;;;2.53;;
16352;SDS011;8286;51.274;9.542;2023-04-15T12:19:05;5.03;;;2.97;;
16352;SDS011;8286;51.274;9.542;2023-04-15T12:21:33;3.07;;;2.67;;
16352;SDS011;8286;51.274;9.542;2023-04-15T12:24:01;3.10;;;2.80;;
16352;SDS011;8286;51.274;9.542;2023-04-15T12:26:29;3.10;;;2.80;;
16352;SDS011;8286;51.274;9.542;2023-04-15T12:28:59;3.03;;;2.73;;
16352;SDS011;8286;51.274;9.542;2023-04-15T12:31:28;3.47;;;2.40;;
16352;SDS011;8286;51.274;9.542;2023-04-15T12:33:54;3.20;;;2.67;;
16352;SDS011;8286;51.274;9.542;2023-04-15T12:36:21;3.60;;;2.83;;
16352;SDS011;8286;51.274;9.542;2023-04-15T12:38:48;4.87;;;3.60;;
16352;SDS011;8286;51.274;9.542;2023-04-15T12:41:15;3.67;;;3.27;;
16352;SDS011;8286;51.274;9.542;2023-04-15T12:43:43;3.83;;;3.27;;
16352;SDS011;8286;51.274;9.542;2023-04-15T12:46:09;3.77;;;3.00;;
16352;SDS011;8286;51.274;9.542;2023-04-15T12:48:37;5.40;;;3.53;;
16352;SDS011;8286;51.274;9.542;2023-04-15T12:51:05;4.77;;;3.50;;
16352;SDS011;8286;51.274;9.542;2023-04-15T12:53:32;5.47;;;3.50;;
16352;SDS011;8286;51.274;9.542;2023-04-15T12:55:58;4.30;;;3.60;;
16352;SDS011;8286;51.274;9.542;2023-04-15T12:58:25;4.67;;;3.53;;
16352;SDS011;8286;51.274;9.542;2023-04-15T13:00:51;4.37;;;3.40;;
16352;SDS011;8286;51.274;9.542;2023-04-15T13:03:18;5.63;;;3.80;;
16352;SDS011;8286;51.274;9.542;2023-04-15T13:05:46;4.13;;;3.53;;
16352;SDS011;8286;51.274;9.542;2023-04-15T13:08:13;6.13;;;4.23;;
16352;SDS011;8286;51.274;9.542;2023-04-15T13:10:39;5.77;;;4.10;;
16352;SDS011;8286;51.274;9.542;2023-04-15T13:13:06;7.17;;;4.53;;
16352;SDS011;8286;51.274;9.542;2023-04-15T13:15:33;5.03;;;3.83;;
16352;SDS011;8286;51.274;9.542;2023-04-15T13:18:00;5.17;;;3.67;;
16352;SDS011;8286;51.274;9.542;2023-04-15T13:20:27;4.37;;;3.60;;
16352;SDS011;8286;51.274;9.542;2023-04-15T13:22:55;7.03;;;4.57;;
16352;SDS011;8286;51.274;9.542;2023-04-15T13:25:21;4.87;;;3.93;;
16352;SDS011;8286;51.274;9.542;2023-04-15T13:27:48;5.00;;;4.17;;
16352;SDS011;8286;51.274;9.542;2023-04-15T13:30:15;5.70;;;4.30;;
16352;SDS011;8286;51.274;9.542;2023-04-15T13:32:41;5.83;;;4.13;;
16352;SDS011;8286;51.274;9.542;2023-04-15T13:35:08;5.10;;;4.00;;
16352;SDS011;8286;51.274;9.542;2023-04-15T13:37:35;4.47;;;3.53;;
16352;SDS011;8286;51.274;9.542;2023-04-15T13:40:03;5.60;;;3.87;;
16352;SDS011;8286;51.274;9.542;2023-04-15T13:42:31;5.63;;;4.40;;
16352;SDS011;8286;51.274;9.542;2023-04-15T13:44:58;5.93;;;4.33;;
16352;SDS011;8286;51.274;9.542;2023-04-15T13:47:24;6.33;;;4.57;;
16352;SDS011;8286;51.274;9.542;2023-04-15T13:49:51;6.70;;;4.13;;
16352;SDS011;8286;51.274;9.542;2023-04-15T13:52:20;5.27;;;4.00;;
16352;SDS011;8286;51.274;9.542;2023-04-15T13:54:46;6.13;;;4.60;;
16352;SDS011;8286;51.274;9.542;2023-04-15T13:57:14;6.63;;;4.60;;
16352;SDS011;8286;51.274;9.542;2023-04-15T13:59:41;5.97;;;4.33;;
16352;SDS011;8286;51.274;9.542;2023-04-15T14:02:08;6.60;;;4.57;;
16352;SDS011;8286;51.274;9.542;2023-04-15T14:04:34;7.20;;;4.57;;
16352;SDS011;8286;51.274;9.542;2023-04-15T14:07:01;8.07;;;4.77;;
16352;SDS011;8286;51.274;9.542;2023-04-15T14:09:28;8.73;;;5.33;;
16352;SDS011;8286;51.274;9.542;2023-04-15T14:11:55;7.77;;;5.00;;
16352;SDS011;8286;51.274;9.542;2023-04-15T14:14:24;6.80;;;4.80;;
16352;SDS011;8286;51.274;9.542;2023-04-15T14:16:51;6.83;;;5.10;;
16352;SDS011;8286;51.274;9.542;2023-04-15T14:19:17;7.63;;;5.27;;
16352;SDS011;8286;51.274;9.542;2023-04-15T14:21:44;7.10;;;4.80;;
16352;SDS011;8286;51.274;9.542;2023-04-15T14:24:10;6.43;;;4.97;;
16352;SDS011;8286;51.274;9.542;2023-04-15T14:26:37;7.40;;;5.30;;
16352;SDS011;8286;51.274;9.542;2023-04-15T14:29:04;9.93;;;5.27;;
16352;SDS011;8286;51.274;9.542;2023-04-15T14:31:32;10.20;;;6.10;;
16352;SDS011;8286;51.274;9.542;2023-04-15T14:33:58;8.60;;;5.60;;
16352;SDS011;8286;51.274;9.542;2023-04-15T14:36:25;10.63;;;5.47;;
16352;SDS011;8286;51.274;9.542;2023-04-15T14:38:51;10.30;;;6.63;;
16352;SDS011;8286;51.274;9.542;2023-04-15T14:41:18;13.93;;;5.77;;
16352;SDS011;8286;51.274;9.542;2023-04-15T14:43:46;9.37;;;6.27;;
16352;SDS011;8286;51.274;9.542;2023-04-15T14:46:13;11.80;;;6.70;;
16352;SDS011;8286;51.274;9.542;2023-04-15T14:48:41;11.00;;;6.70;;
16352;SDS011;8286;51.274;9.542;2023-04-15T14:51:07;10.67;;;6.73;;
16352;SDS011;8286;51.274;9.542;2023-04-15T14:53:34;11.23;;;7.00;;
16352;SDS011;8286;51.274;9.542;2023-04-15T14:56:00;17.60;;;7.30;;
16352;SDS011;8286;51.274;9.542;2023-04-15T14:58:28;13.63;;;8.00;;